MTN1518 KPKB-KIND
Flight info
| Callsign | MTN1518 |
|---|---|
| Flight time | 1h 38m |
| Altitude | 8000 |
| Route | XUB SHB |
| Aircraft | C208/L-SDFGR/C |
Departure
| Time | 2026-05-08 13:56 |
|---|---|
| Airport | Mid Ohio Valley Regional Airport (KPKB) |
Arrival
| Time | 2026-05-08 15:34 |
|---|---|
| Airport | Indianapolis International Airport (KIND) |
| Time | Latitude | Longitude | Altitude | Speed | Heading |
|---|---|---|---|---|---|
| 2026-05-08 13:26 | 39.34584 | -81.43605 | 844 ft | 0 kts | 238° |
| 2026-05-08 13:51 | 39.34580 | -81.43619 | 838 ft | 5 kts | 258° |
| 2026-05-08 13:52 | 39.34574 | -81.43704 | 839 ft | 13 kts | 252° |
| 2026-05-08 13:52 | 39.34477 | -81.43730 | 840 ft | 18 kts | 166° |
| 2026-05-08 13:52 | 39.34371 | -81.43651 | 844 ft | 20 kts | 134° |
| 2026-05-08 13:52 | 39.34319 | -81.43509 | 840 ft | 15 kts | 99° |
| 2026-05-08 13:53 | 39.34306 | -81.43366 | 846 ft | 9 kts | 111° |
| 2026-05-08 13:53 | 39.34294 | -81.43346 | 844 ft | 0 kts | 143° |
| 2026-05-08 13:53 | 39.34293 | -81.43345 | 846 ft | 1 kts | 143° |
| 2026-05-08 13:53 | 39.34261 | -81.43323 | 841 ft | 9 kts | 181° |
| 2026-05-08 13:54 | 39.34240 | -81.43385 | 845 ft | 0 kts | 275° |
| 2026-05-08 13:54 | 39.34244 | -81.43443 | 845 ft | 27 kts | 276° |
| 2026-05-08 13:55 | 39.34276 | -81.43900 | 840 ft | 73 kts | 274° |
| 2026-05-08 13:55 | 39.34346 | -81.44647 | 947 ft | 92 kts | 270° |
| 2026-05-08 13:55 | 39.34546 | -81.46495 | 1308 ft | 113 kts | 271° |
| 2026-05-08 13:56 | 39.34705 | -81.47497 | 1598 ft | 112 kts | 277° |
| 2026-05-08 13:56 | 39.34885 | -81.48464 | 1882 ft | 107 kts | 276° |
| 2026-05-08 13:56 | 39.35035 | -81.49378 | 2253 ft | 102 kts | 274° |
| 2026-05-08 13:56 | 39.35154 | -81.50245 | 2575 ft | 95 kts | 274° |
| 2026-05-08 13:57 | 39.35247 | -81.51103 | 2868 ft | 97 kts | 274° |
| 2026-05-08 13:57 | 39.35330 | -81.51972 | 3164 ft | 97 kts | 275° |
| 2026-05-08 13:57 | 39.35402 | -81.52839 | 3412 ft | 97 kts | 274° |
| 2026-05-08 13:57 | 39.35461 | -81.53707 | 3692 ft | 97 kts | 274° |
| 2026-05-08 13:58 | 39.35516 | -81.54576 | 3957 ft | 97 kts | 274° |
| 2026-05-08 13:58 | 39.35555 | -81.55436 | 4190 ft | 98 kts | 274° |
| 2026-05-08 13:58 | 39.35646 | -81.56309 | 4403 ft | 98 kts | 280° |
| 2026-05-08 13:58 | 39.35758 | -81.57179 | 4675 ft | 98 kts | 280° |
| 2026-05-08 13:59 | 39.35868 | -81.58051 | 4916 ft | 99 kts | 280° |
| 2026-05-08 13:59 | 39.35980 | -81.58926 | 5153 ft | 99 kts | 280° |
| 2026-05-08 13:59 | 39.36091 | -81.59807 | 5397 ft | 100 kts | 280° |
| 2026-05-08 13:59 | 39.36204 | -81.60696 | 5622 ft | 101 kts | 279° |
| 2026-05-08 14:00 | 39.36317 | -81.61593 | 5856 ft | 101 kts | 281° |
| 2026-05-08 14:00 | 39.36435 | -81.62487 | 6106 ft | 101 kts | 280° |
| 2026-05-08 14:00 | 39.36543 | -81.63373 | 6350 ft | 101 kts | 280° |
| 2026-05-08 14:00 | 39.36656 | -81.64267 | 6584 ft | 101 kts | 280° |
| 2026-05-08 14:01 | 39.36769 | -81.65163 | 6804 ft | 101 kts | 280° |
| 2026-05-08 14:01 | 39.36882 | -81.66062 | 6997 ft | 101 kts | 281° |
| 2026-05-08 14:01 | 39.36995 | -81.66963 | 7208 ft | 102 kts | 281° |
| 2026-05-08 14:01 | 39.37108 | -81.67864 | 7421 ft | 101 kts | 281° |
| 2026-05-08 14:02 | 39.37222 | -81.68763 | 7643 ft | 102 kts | 281° |
| 2026-05-08 14:02 | 39.37334 | -81.69668 | 7846 ft | 102 kts | 281° |
| 2026-05-08 14:02 | 39.37449 | -81.70584 | 7970 ft | 108 kts | 281° |
| 2026-05-08 14:02 | 39.37577 | -81.71586 | 7985 ft | 120 kts | 281° |
| 2026-05-08 14:03 | 39.37716 | -81.72694 | 7986 ft | 129 kts | 281° |
| 2026-05-08 14:03 | 39.37864 | -81.73864 | 7981 ft | 134 kts | 281° |
| 2026-05-08 14:03 | 39.38015 | -81.75071 | 7980 ft | 138 kts | 281° |
| 2026-05-08 14:03 | 39.38168 | -81.76301 | 7983 ft | 140 kts | 281° |
| 2026-05-08 14:04 | 39.38326 | -81.77563 | 7981 ft | 143 kts | 281° |
| 2026-05-08 14:04 | 39.38485 | -81.78845 | 7981 ft | 145 kts | 281° |
| 2026-05-08 14:04 | 39.38647 | -81.80135 | 7980 ft | 146 kts | 281° |
| 2026-05-08 14:04 | 39.38807 | -81.81428 | 7981 ft | 146 kts | 281° |
| 2026-05-08 14:05 | 39.38965 | -81.82706 | 7979 ft | 147 kts | 281° |
| 2026-05-08 14:05 | 39.39127 | -81.84008 | 7981 ft | 147 kts | 281° |
| 2026-05-08 14:05 | 39.39288 | -81.85311 | 7974 ft | 147 kts | 281° |
| 2026-05-08 14:05 | 39.39450 | -81.86611 | 7980 ft | 146 kts | 280° |
| 2026-05-08 14:06 | 39.39613 | -81.87915 | 7976 ft | 147 kts | 280° |
| 2026-05-08 14:06 | 39.39775 | -81.89218 | 7972 ft | 147 kts | 280° |
| 2026-05-08 14:06 | 39.39935 | -81.90522 | 7979 ft | 147 kts | 280° |
| 2026-05-08 14:06 | 39.40096 | -81.91831 | 7978 ft | 148 kts | 280° |
| 2026-05-08 14:07 | 39.40258 | -81.93141 | 7977 ft | 148 kts | 280° |
| 2026-05-08 14:07 | 39.40416 | -81.94435 | 7976 ft | 148 kts | 281° |
| 2026-05-08 14:07 | 39.40578 | -81.95749 | 7978 ft | 148 kts | 280° |
| 2026-05-08 14:07 | 39.40740 | -81.97064 | 7977 ft | 148 kts | 281° |
| 2026-05-08 14:08 | 39.40904 | -81.98376 | 7976 ft | 148 kts | 281° |
| 2026-05-08 14:08 | 39.41064 | -81.99685 | 7969 ft | 147 kts | 280° |
| 2026-05-08 14:08 | 39.41222 | -82.00992 | 7968 ft | 147 kts | 281° |
| 2026-05-08 14:08 | 39.41379 | -82.02303 | 7974 ft | 148 kts | 281° |
| 2026-05-08 14:09 | 39.41545 | -82.03619 | 7971 ft | 148 kts | 280° |
| 2026-05-08 14:09 | 39.41703 | -82.04916 | 7969 ft | 148 kts | 280° |
| 2026-05-08 14:09 | 39.41864 | -82.06227 | 7969 ft | 147 kts | 280° |
| 2026-05-08 14:09 | 39.42024 | -82.07536 | 7967 ft | 148 kts | 280° |
| 2026-05-08 14:10 | 39.42184 | -82.08851 | 7968 ft | 148 kts | 280° |
| 2026-05-08 14:10 | 39.42344 | -82.10163 | 7972 ft | 148 kts | 280° |
| 2026-05-08 14:10 | 39.42503 | -82.11476 | 7971 ft | 148 kts | 280° |
| 2026-05-08 14:10 | 39.42665 | -82.12788 | 7971 ft | 148 kts | 280° |
| 2026-05-08 14:11 | 39.42822 | -82.14098 | 7971 ft | 147 kts | 280° |
| 2026-05-08 14:11 | 39.42981 | -82.15406 | 7970 ft | 147 kts | 280° |
| 2026-05-08 14:11 | 39.43139 | -82.16707 | 7972 ft | 147 kts | 280° |
| 2026-05-08 14:11 | 39.43295 | -82.17995 | 7972 ft | 147 kts | 280° |
| 2026-05-08 14:12 | 39.43453 | -82.19305 | 7965 ft | 148 kts | 280° |
| 2026-05-08 14:12 | 39.43612 | -82.20618 | 7972 ft | 148 kts | 280° |
| 2026-05-08 14:12 | 39.43773 | -82.21935 | 7968 ft | 148 kts | 280° |
| 2026-05-08 14:12 | 39.43930 | -82.23245 | 7970 ft | 147 kts | 280° |
| 2026-05-08 14:13 | 39.44086 | -82.24550 | 7965 ft | 147 kts | 280° |
| 2026-05-08 14:13 | 39.44244 | -82.25856 | 7964 ft | 147 kts | 280° |
| 2026-05-08 14:13 | 39.44400 | -82.27150 | 7964 ft | 147 kts | 280° |
| 2026-05-08 14:13 | 39.44557 | -82.28457 | 7961 ft | 147 kts | 280° |
| 2026-05-08 14:14 | 39.44715 | -82.29768 | 7967 ft | 147 kts | 280° |
| 2026-05-08 14:14 | 39.44871 | -82.31068 | 7969 ft | 146 kts | 279° |
| 2026-05-08 14:14 | 39.45024 | -82.32371 | 7963 ft | 146 kts | 280° |
| 2026-05-08 14:14 | 39.45181 | -82.33669 | 7963 ft | 146 kts | 280° |
| 2026-05-08 14:15 | 39.45337 | -82.34969 | 7965 ft | 147 kts | 280° |
| 2026-05-08 14:15 | 39.45494 | -82.36273 | 7965 ft | 147 kts | 280° |
| 2026-05-08 14:15 | 39.45650 | -82.37582 | 7968 ft | 147 kts | 279° |
| 2026-05-08 14:15 | 39.45803 | -82.38869 | 7968 ft | 147 kts | 280° |
| 2026-05-08 14:16 | 39.45960 | -82.40176 | 7970 ft | 147 kts | 279° |
| 2026-05-08 14:16 | 39.46114 | -82.41486 | 7959 ft | 148 kts | 279° |
| 2026-05-08 14:16 | 39.46270 | -82.42800 | 7960 ft | 147 kts | 278° |
| 2026-05-08 14:16 | 39.46428 | -82.44113 | 7963 ft | 148 kts | 279° |
| 2026-05-08 14:17 | 39.46583 | -82.45424 | 7965 ft | 147 kts | 279° |
| 2026-05-08 14:17 | 39.46738 | -82.46734 | 7966 ft | 147 kts | 279° |
| 2026-05-08 14:17 | 39.46893 | -82.48042 | 7963 ft | 147 kts | 279° |
| 2026-05-08 14:17 | 39.47048 | -82.49354 | 7960 ft | 148 kts | 279° |
| 2026-05-08 14:18 | 39.47205 | -82.50669 | 7964 ft | 148 kts | 279° |
| 2026-05-08 14:18 | 39.47357 | -82.51966 | 7965 ft | 148 kts | 279° |
| 2026-05-08 14:18 | 39.47513 | -82.53286 | 7964 ft | 149 kts | 279° |
| 2026-05-08 14:18 | 39.47668 | -82.54610 | 7959 ft | 149 kts | 279° |
| 2026-05-08 14:19 | 39.47824 | -82.55928 | 7964 ft | 148 kts | 279° |
| 2026-05-08 14:19 | 39.47978 | -82.57244 | 7964 ft | 148 kts | 279° |
| 2026-05-08 14:19 | 39.48132 | -82.58549 | 7971 ft | 146 kts | 279° |
| 2026-05-08 14:19 | 39.48285 | -82.59854 | 7969 ft | 147 kts | 279° |
| 2026-05-08 14:20 | 39.48438 | -82.61160 | 7967 ft | 147 kts | 279° |
| 2026-05-08 14:20 | 39.48591 | -82.62468 | 7958 ft | 146 kts | 279° |
| 2026-05-08 14:20 | 39.48742 | -82.63771 | 7965 ft | 147 kts | 279° |
| 2026-05-08 14:20 | 39.48896 | -82.65062 | 7967 ft | 148 kts | 279° |
| 2026-05-08 14:21 | 39.49048 | -82.66377 | 7969 ft | 148 kts | 279° |
| 2026-05-08 14:21 | 39.49203 | -82.67699 | 7969 ft | 149 kts | 279° |
| 2026-05-08 14:21 | 39.49357 | -82.69022 | 7969 ft | 149 kts | 279° |
| 2026-05-08 14:21 | 39.49511 | -82.70344 | 7981 ft | 149 kts | 279° |
| 2026-05-08 14:22 | 39.49665 | -82.71661 | 8019 ft | 146 kts | 279° |
| 2026-05-08 14:22 | 39.49815 | -82.72965 | 8017 ft | 147 kts | 279° |
| 2026-05-08 14:22 | 39.49968 | -82.74277 | 8018 ft | 147 kts | 279° |
| 2026-05-08 14:22 | 39.50120 | -82.75585 | 8020 ft | 147 kts | 279° |
| 2026-05-08 14:23 | 39.50270 | -82.76883 | 8021 ft | 148 kts | 279° |
| 2026-05-08 14:23 | 39.50422 | -82.78195 | 8020 ft | 148 kts | 279° |
| 2026-05-08 14:23 | 39.50575 | -82.79510 | 8022 ft | 148 kts | 279° |
| 2026-05-08 14:23 | 39.50727 | -82.80825 | 8024 ft | 148 kts | 279° |
| 2026-05-08 14:24 | 39.50878 | -82.82144 | 8025 ft | 148 kts | 279° |
| 2026-05-08 14:24 | 39.51031 | -82.83465 | 8028 ft | 148 kts | 279° |
| 2026-05-08 14:24 | 39.51183 | -82.84787 | 8029 ft | 148 kts | 279° |
| 2026-05-08 14:24 | 39.51335 | -82.86108 | 8027 ft | 148 kts | 279° |
| 2026-05-08 14:25 | 39.51486 | -82.87427 | 8028 ft | 148 kts | 279° |
| 2026-05-08 14:25 | 39.51636 | -82.88727 | 8029 ft | 148 kts | 279° |
| 2026-05-08 14:25 | 39.51786 | -82.90036 | 8030 ft | 147 kts | 278° |
| 2026-05-08 14:25 | 39.51936 | -82.91345 | 8030 ft | 146 kts | 278° |
| 2026-05-08 14:26 | 39.52084 | -82.92640 | 8033 ft | 146 kts | 278° |
| 2026-05-08 14:26 | 39.52232 | -82.93940 | 8032 ft | 146 kts | 278° |
| 2026-05-08 14:26 | 39.52382 | -82.95246 | 8036 ft | 147 kts | 278° |
| 2026-05-08 14:26 | 39.52534 | -82.96560 | 8035 ft | 147 kts | 279° |
| 2026-05-08 14:27 | 39.52676 | -82.97869 | 8039 ft | 147 kts | 276° |
| 2026-05-08 14:27 | 39.52712 | -82.99196 | 8045 ft | 149 kts | 275° |
| 2026-05-08 14:27 | 39.52805 | -83.00543 | 8046 ft | 151 kts | 275° |
| 2026-05-08 14:27 | 39.52857 | -83.01888 | 8047 ft | 153 kts | 273° |
| 2026-05-08 14:28 | 39.52949 | -83.03281 | 8064 ft | 158 kts | 277° |
| 2026-05-08 14:28 | 39.53046 | -83.04727 | 8022 ft | 163 kts | 272° |
| 2026-05-08 14:28 | 39.53044 | -83.06193 | 8027 ft | 162 kts | 275° |
| 2026-05-08 14:28 | 39.53153 | -83.07610 | 8040 ft | 156 kts | 276° |
| 2026-05-08 14:29 | 39.53226 | -83.09001 | 8033 ft | 152 kts | 274° |
| 2026-05-08 14:29 | 39.53287 | -83.10350 | 8031 ft | 149 kts | 274° |
| 2026-05-08 14:29 | 39.53349 | -83.11677 | 8029 ft | 147 kts | 275° |
| 2026-05-08 14:29 | 39.53411 | -83.12986 | 8030 ft | 145 kts | 274° |
| 2026-05-08 14:30 | 39.53473 | -83.14262 | 8030 ft | 143 kts | 274° |
| 2026-05-08 14:30 | 39.53534 | -83.15547 | 8027 ft | 143 kts | 274° |
| 2026-05-08 14:30 | 39.53596 | -83.16827 | 8028 ft | 142 kts | 274° |
| 2026-05-08 14:30 | 39.53657 | -83.18108 | 8025 ft | 143 kts | 274° |
| 2026-05-08 14:31 | 39.53718 | -83.19388 | 8028 ft | 143 kts | 274° |
| 2026-05-08 14:31 | 39.53779 | -83.20671 | 8025 ft | 142 kts | 274° |
| 2026-05-08 14:31 | 39.53839 | -83.21951 | 8024 ft | 142 kts | 274° |
| 2026-05-08 14:32 | 39.53960 | -83.24516 | 8019 ft | 143 kts | 274° |
| 2026-05-08 14:32 | 39.54021 | -83.25794 | 8019 ft | 142 kts | 274° |
| 2026-05-08 14:32 | 39.54081 | -83.27076 | 8017 ft | 143 kts | 274° |
| 2026-05-08 14:32 | 39.54140 | -83.28356 | 8015 ft | 142 kts | 274° |
| 2026-05-08 14:33 | 39.54200 | -83.29632 | 8010 ft | 142 kts | 274° |
| 2026-05-08 14:33 | 39.54259 | -83.30894 | 8003 ft | 142 kts | 274° |
| 2026-05-08 14:33 | 39.54318 | -83.32174 | 8001 ft | 142 kts | 274° |
| 2026-05-08 14:33 | 39.54378 | -83.33452 | 8000 ft | 142 kts | 274° |
| 2026-05-08 14:34 | 39.54436 | -83.34728 | 7996 ft | 142 kts | 274° |
| 2026-05-08 14:34 | 39.54495 | -83.36002 | 7996 ft | 142 kts | 274° |
| 2026-05-08 14:34 | 39.54554 | -83.37282 | 7994 ft | 142 kts | 274° |
| 2026-05-08 14:34 | 39.54613 | -83.38559 | 7993 ft | 142 kts | 274° |
| 2026-05-08 14:35 | 39.54672 | -83.39840 | 7989 ft | 143 kts | 274° |
| 2026-05-08 14:35 | 39.54729 | -83.41110 | 7988 ft | 143 kts | 274° |
| 2026-05-08 14:35 | 39.54788 | -83.42398 | 7986 ft | 143 kts | 274° |
| 2026-05-08 14:35 | 39.54847 | -83.43685 | 7984 ft | 143 kts | 274° |
| 2026-05-08 14:36 | 39.54905 | -83.44972 | 7983 ft | 143 kts | 274° |
| 2026-05-08 14:36 | 39.54964 | -83.46264 | 7984 ft | 144 kts | 274° |
| 2026-05-08 14:36 | 39.55023 | -83.47565 | 7986 ft | 145 kts | 274° |
| 2026-05-08 14:36 | 39.55082 | -83.48870 | 7985 ft | 145 kts | 274° |
| 2026-05-08 14:37 | 39.55140 | -83.50176 | 7983 ft | 145 kts | 274° |
| 2026-05-08 14:37 | 39.55198 | -83.51474 | 7982 ft | 144 kts | 274° |
| 2026-05-08 14:37 | 39.55256 | -83.52767 | 7982 ft | 144 kts | 274° |
| 2026-05-08 14:37 | 39.55312 | -83.54058 | 7983 ft | 143 kts | 272° |
| 2026-05-08 14:38 | 39.55369 | -83.55326 | 7983 ft | 142 kts | 273° |
| 2026-05-08 14:38 | 39.55426 | -83.56605 | 7982 ft | 142 kts | 273° |
| 2026-05-08 14:38 | 39.55483 | -83.57883 | 7982 ft | 142 kts | 273° |
| 2026-05-08 14:38 | 39.55540 | -83.59163 | 7981 ft | 142 kts | 273° |
| 2026-05-08 14:39 | 39.55596 | -83.60444 | 7980 ft | 142 kts | 273° |
| 2026-05-08 14:39 | 39.55652 | -83.61722 | 7980 ft | 142 kts | 273° |
| 2026-05-08 14:39 | 39.55708 | -83.63003 | 7980 ft | 142 kts | 273° |
| 2026-05-08 14:39 | 39.55764 | -83.64281 | 7978 ft | 142 kts | 273° |
| 2026-05-08 14:40 | 39.55820 | -83.65556 | 7975 ft | 142 kts | 273° |
| 2026-05-08 14:40 | 39.55875 | -83.66830 | 7975 ft | 142 kts | 273° |
| 2026-05-08 14:40 | 39.55930 | -83.68104 | 7974 ft | 142 kts | 273° |
| 2026-05-08 14:40 | 39.55985 | -83.69362 | 7974 ft | 142 kts | 273° |
| 2026-05-08 14:41 | 39.56040 | -83.70640 | 7974 ft | 142 kts | 273° |
| 2026-05-08 14:41 | 39.56095 | -83.71919 | 7973 ft | 142 kts | 273° |
| 2026-05-08 14:41 | 39.56150 | -83.73199 | 7974 ft | 143 kts | 273° |
| 2026-05-08 14:41 | 39.56205 | -83.74480 | 7973 ft | 143 kts | 273° |
| 2026-05-08 14:42 | 39.56260 | -83.75765 | 7973 ft | 143 kts | 273° |
| 2026-05-08 14:42 | 39.56315 | -83.77051 | 7972 ft | 143 kts | 273° |
| 2026-05-08 14:42 | 39.56370 | -83.78340 | 7972 ft | 143 kts | 273° |
| 2026-05-08 14:42 | 39.56424 | -83.79617 | 7974 ft | 144 kts | 273° |
| 2026-05-08 14:43 | 39.56479 | -83.80914 | 7974 ft | 144 kts | 273° |
| 2026-05-08 14:43 | 39.56534 | -83.82209 | 7972 ft | 144 kts | 272° |
| 2026-05-08 14:43 | 39.56585 | -83.83502 | 7975 ft | 144 kts | 273° |
| 2026-05-08 14:43 | 39.56643 | -83.84803 | 7976 ft | 145 kts | 272° |
| 2026-05-08 14:44 | 39.56694 | -83.86105 | 7974 ft | 145 kts | 272° |
| 2026-05-08 14:44 | 39.56751 | -83.87403 | 7975 ft | 145 kts | 273° |
| 2026-05-08 14:44 | 39.56805 | -83.88708 | 7958 ft | 144 kts | 273° |
| 2026-05-08 14:44 | 39.56860 | -83.90005 | 7958 ft | 144 kts | 273° |
| 2026-05-08 14:45 | 39.56913 | -83.91303 | 7956 ft | 144 kts | 272° |
| 2026-05-08 14:45 | 39.56966 | -83.92604 | 7957 ft | 144 kts | 272° |
| 2026-05-08 14:45 | 39.57019 | -83.93888 | 7956 ft | 145 kts | 272° |
| 2026-05-08 14:45 | 39.57072 | -83.95188 | 7954 ft | 144 kts | 272° |
| 2026-05-08 14:46 | 39.57125 | -83.96482 | 7955 ft | 144 kts | 272° |
| 2026-05-08 14:46 | 39.57178 | -83.97774 | 7955 ft | 144 kts | 272° |
| 2026-05-08 14:46 | 39.57231 | -83.99073 | 7957 ft | 145 kts | 272° |
| 2026-05-08 14:46 | 39.57284 | -84.00383 | 7958 ft | 146 kts | 272° |
| 2026-05-08 14:47 | 39.57337 | -84.01698 | 7954 ft | 146 kts | 272° |
| 2026-05-08 14:47 | 39.57391 | -84.03009 | 7955 ft | 146 kts | 272° |
| 2026-05-08 14:47 | 39.57443 | -84.04316 | 7953 ft | 145 kts | 272° |
| 2026-05-08 14:47 | 39.57495 | -84.05599 | 7954 ft | 144 kts | 272° |
| 2026-05-08 14:48 | 39.57547 | -84.06899 | 7970 ft | 144 kts | 272° |
| 2026-05-08 14:48 | 39.57598 | -84.08196 | 7971 ft | 144 kts | 272° |
| 2026-05-08 14:48 | 39.57650 | -84.09496 | 7972 ft | 144 kts | 272° |
| 2026-05-08 14:48 | 39.57702 | -84.10791 | 7970 ft | 143 kts | 272° |
| 2026-05-08 14:49 | 39.57754 | -84.12079 | 7973 ft | 143 kts | 272° |
| 2026-05-08 14:49 | 39.57804 | -84.13374 | 7972 ft | 144 kts | 272° |
| 2026-05-08 14:49 | 39.57855 | -84.14671 | 7974 ft | 144 kts | 272° |
| 2026-05-08 14:49 | 39.57907 | -84.15973 | 7973 ft | 144 kts | 272° |
| 2026-05-08 14:50 | 39.57957 | -84.17251 | 7972 ft | 144 kts | 272° |
| 2026-05-08 14:50 | 39.58008 | -84.18553 | 7975 ft | 145 kts | 272° |
| 2026-05-08 14:50 | 39.58058 | -84.19860 | 7973 ft | 145 kts | 272° |
| 2026-05-08 14:50 | 39.58108 | -84.21166 | 7973 ft | 145 kts | 272° |
| 2026-05-08 14:51 | 39.58159 | -84.22468 | 7974 ft | 144 kts | 272° |
| 2026-05-08 14:51 | 39.58208 | -84.23771 | 7975 ft | 145 kts | 272° |
| 2026-05-08 14:51 | 39.58259 | -84.25076 | 7972 ft | 145 kts | 272° |
| 2026-05-08 14:51 | 39.58309 | -84.26379 | 7972 ft | 144 kts | 272° |
| 2026-05-08 14:52 | 39.58359 | -84.27675 | 7972 ft | 144 kts | 272° |
| 2026-05-08 14:52 | 39.58456 | -84.30254 | 7971 ft | 144 kts | 272° |
| 2026-05-08 14:52 | 39.58506 | -84.31557 | 7972 ft | 145 kts | 272° |
| 2026-05-08 14:53 | 39.58556 | -84.32861 | 7973 ft | 145 kts | 272° |
| 2026-05-08 14:53 | 39.58604 | -84.34166 | 7974 ft | 145 kts | 272° |
| 2026-05-08 14:53 | 39.58654 | -84.35477 | 7970 ft | 146 kts | 272° |
| 2026-05-08 14:53 | 39.58705 | -84.36790 | 7973 ft | 146 kts | 272° |
| 2026-05-08 14:54 | 39.58752 | -84.38109 | 7982 ft | 147 kts | 272° |
| 2026-05-08 14:54 | 39.58802 | -84.39426 | 7980 ft | 146 kts | 272° |
| 2026-05-08 14:54 | 39.58850 | -84.40736 | 7982 ft | 145 kts | 272° |
| 2026-05-08 14:54 | 39.58898 | -84.42020 | 7984 ft | 145 kts | 272° |
| 2026-05-08 14:55 | 39.58931 | -84.42900 | 7983 ft | 145 kts | 272° |
| 2026-05-08 14:55 | 39.58995 | -84.44633 | 7980 ft | 144 kts | 272° |
| 2026-05-08 14:55 | 39.59044 | -84.45933 | 7983 ft | 145 kts | 271° |
| 2026-05-08 14:55 | 39.59090 | -84.47235 | 7981 ft | 145 kts | 271° |
| 2026-05-08 14:56 | 39.59137 | -84.48540 | 7981 ft | 146 kts | 272° |
| 2026-05-08 14:56 | 39.59185 | -84.49847 | 7983 ft | 145 kts | 271° |
| 2026-05-08 14:56 | 39.59216 | -84.50713 | 7983 ft | 146 kts | 272° |
| 2026-05-08 14:56 | 39.59265 | -84.52031 | 7978 ft | 146 kts | 272° |
| 2026-05-08 14:57 | 39.59311 | -84.53336 | 7979 ft | 145 kts | 272° |
| 2026-05-08 14:57 | 39.59358 | -84.54640 | 7980 ft | 145 kts | 272° |
| 2026-05-08 14:57 | 39.59419 | -84.56364 | 7975 ft | 144 kts | 272° |
| 2026-05-08 14:57 | 39.59465 | -84.57658 | 7973 ft | 144 kts | 272° |
| 2026-05-08 14:58 | 39.59513 | -84.58952 | 7977 ft | 144 kts | 272° |
| 2026-05-08 14:58 | 39.59543 | -84.59811 | 7974 ft | 144 kts | 271° |
| 2026-05-08 14:58 | 39.59588 | -84.61102 | 7962 ft | 144 kts | 271° |
| 2026-05-08 14:58 | 39.59633 | -84.62403 | 7964 ft | 145 kts | 271° |
| 2026-05-08 14:59 | 39.59680 | -84.63716 | 7966 ft | 146 kts | 271° |
| 2026-05-08 14:59 | 39.59771 | -84.66347 | 7963 ft | 146 kts | 272° |
| 2026-05-08 14:59 | 39.59833 | -84.68073 | 7966 ft | 144 kts | 272° |
| 2026-05-08 15:00 | 39.59878 | -84.69369 | 7963 ft | 144 kts | 272° |
| 2026-05-08 15:00 | 39.59912 | -84.70250 | 7963 ft | 145 kts | 272° |
| 2026-05-08 15:00 | 39.59953 | -84.71555 | 7964 ft | 145 kts | 272° |
| 2026-05-08 15:00 | 39.59993 | -84.72759 | 7961 ft | 146 kts | 272° |
| 2026-05-08 15:01 | 39.60040 | -84.74069 | 7966 ft | 146 kts | 272° |
| 2026-05-08 15:01 | 39.60083 | -84.75384 | 7966 ft | 146 kts | 272° |
| 2026-05-08 15:01 | 39.60129 | -84.76702 | 7966 ft | 146 kts | 272° |
| 2026-05-08 15:01 | 39.60172 | -84.78018 | 7965 ft | 146 kts | 272° |
| 2026-05-08 15:02 | 39.60217 | -84.79332 | 7965 ft | 146 kts | 272° |
| 2026-05-08 15:02 | 39.60261 | -84.80650 | 7966 ft | 146 kts | 272° |
| 2026-05-08 15:02 | 39.60306 | -84.81971 | 7965 ft | 147 kts | 271° |
| 2026-05-08 15:02 | 39.60345 | -84.83292 | 8001 ft | 145 kts | 272° |
| 2026-05-08 15:03 | 39.60397 | -84.84594 | 8012 ft | 145 kts | 272° |
| 2026-05-08 15:03 | 39.60439 | -84.85887 | 8012 ft | 146 kts | 272° |
| 2026-05-08 15:03 | 39.60482 | -84.87199 | 8018 ft | 145 kts | 272° |
| 2026-05-08 15:03 | 39.60523 | -84.88504 | 8018 ft | 145 kts | 272° |
| 2026-05-08 15:04 | 39.60567 | -84.89816 | 8017 ft | 146 kts | 272° |
| 2026-05-08 15:04 | 39.60613 | -84.91130 | 8019 ft | 146 kts | 272° |
| 2026-05-08 15:04 | 39.60652 | -84.92448 | 8019 ft | 147 kts | 271° |
| 2026-05-08 15:04 | 39.60695 | -84.93767 | 8018 ft | 146 kts | 271° |
| 2026-05-08 15:05 | 39.60737 | -84.95086 | 8017 ft | 146 kts | 271° |
| 2026-05-08 15:05 | 39.60780 | -84.96398 | 8015 ft | 145 kts | 272° |
| 2026-05-08 15:05 | 39.60822 | -84.97688 | 8009 ft | 145 kts | 271° |
| 2026-05-08 15:05 | 39.60864 | -84.98992 | 8011 ft | 145 kts | 271° |
| 2026-05-08 15:06 | 39.60906 | -85.00292 | 8013 ft | 144 kts | 271° |
| 2026-05-08 15:06 | 39.60947 | -85.01591 | 8009 ft | 144 kts | 272° |
| 2026-05-08 15:06 | 39.60989 | -85.02893 | 8009 ft | 145 kts | 272° |
| 2026-05-08 15:06 | 39.61029 | -85.04192 | 8014 ft | 144 kts | 271° |
| 2026-05-08 15:07 | 39.61070 | -85.05493 | 8009 ft | 144 kts | 271° |
| 2026-05-08 15:07 | 39.61111 | -85.06794 | 8010 ft | 145 kts | 271° |
| 2026-05-08 15:07 | 39.61152 | -85.08097 | 8008 ft | 144 kts | 271° |
| 2026-05-08 15:07 | 39.61193 | -85.09401 | 8007 ft | 145 kts | 271° |
| 2026-05-08 15:08 | 39.61231 | -85.10689 | 8007 ft | 145 kts | 271° |
| 2026-05-08 15:08 | 39.61274 | -85.11985 | 7975 ft | 141 kts | 271° |
| 2026-05-08 15:08 | 39.61314 | -85.13243 | 7755 ft | 138 kts | 271° |
| 2026-05-08 15:08 | 39.61352 | -85.14483 | 7545 ft | 137 kts | 271° |
| 2026-05-08 15:09 | 39.61390 | -85.15711 | 7340 ft | 136 kts | 271° |
| 2026-05-08 15:09 | 39.61427 | -85.16933 | 7138 ft | 136 kts | 271° |
| 2026-05-08 15:09 | 39.61463 | -85.18161 | 6940 ft | 137 kts | 270° |
| 2026-05-08 15:09 | 39.61502 | -85.19398 | 6742 ft | 138 kts | 272° |
| 2026-05-08 15:10 | 39.61669 | -85.20636 | 6551 ft | 142 kts | 279° |
| 2026-05-08 15:10 | 39.61891 | -85.21882 | 6354 ft | 141 kts | 279° |
| 2026-05-08 15:10 | 39.62114 | -85.23133 | 6156 ft | 143 kts | 279° |
| 2026-05-08 15:10 | 39.62337 | -85.24377 | 5952 ft | 144 kts | 279° |
| 2026-05-08 15:11 | 39.62567 | -85.25652 | 5749 ft | 144 kts | 279° |
| 2026-05-08 15:11 | 39.62795 | -85.26902 | 5550 ft | 144 kts | 279° |
| 2026-05-08 15:11 | 39.63022 | -85.28166 | 5342 ft | 144 kts | 279° |
| 2026-05-08 15:11 | 39.63253 | -85.29435 | 5142 ft | 145 kts | 279° |
| 2026-05-08 15:12 | 39.63486 | -85.30696 | 4940 ft | 142 kts | 279° |
| 2026-05-08 15:12 | 39.63710 | -85.31936 | 4731 ft | 141 kts | 279° |
| 2026-05-08 15:12 | 39.63947 | -85.33169 | 4526 ft | 140 kts | 279° |
| 2026-05-08 15:12 | 39.64181 | -85.34397 | 4329 ft | 141 kts | 279° |
| 2026-05-08 15:13 | 39.64425 | -85.35645 | 4115 ft | 144 kts | 279° |
| 2026-05-08 15:13 | 39.64677 | -85.36900 | 4003 ft | 141 kts | 280° |
| 2026-05-08 15:13 | 39.64917 | -85.38090 | 4001 ft | 137 kts | 279° |
| 2026-05-08 15:13 | 39.65155 | -85.39300 | 4005 ft | 139 kts | 280° |
| 2026-05-08 15:14 | 39.65396 | -85.40523 | 3995 ft | 140 kts | 280° |
| 2026-05-08 15:14 | 39.65630 | -85.41734 | 4003 ft | 138 kts | 279° |
| 2026-05-08 15:14 | 39.65864 | -85.42947 | 4003 ft | 139 kts | 279° |
| 2026-05-08 15:14 | 39.66116 | -85.44157 | 4002 ft | 138 kts | 280° |
| 2026-05-08 15:15 | 39.66370 | -85.45349 | 3999 ft | 135 kts | 279° |
| 2026-05-08 15:15 | 39.66615 | -85.46534 | 4000 ft | 137 kts | 279° |
| 2026-05-08 15:15 | 39.66865 | -85.47729 | 3993 ft | 136 kts | 279° |
| 2026-05-08 15:15 | 39.67111 | -85.48904 | 4000 ft | 136 kts | 280° |
| 2026-05-08 15:16 | 39.67370 | -85.50120 | 4000 ft | 143 kts | 279° |
| 2026-05-08 15:16 | 39.67631 | -85.51360 | 4001 ft | 146 kts | 279° |
| 2026-05-08 15:16 | 39.67902 | -85.52631 | 4004 ft | 146 kts | 279° |
| 2026-05-08 15:16 | 39.68172 | -85.53909 | 4001 ft | 148 kts | 280° |
| 2026-05-08 15:17 | 39.68439 | -85.55186 | 4004 ft | 146 kts | 279° |
| 2026-05-08 15:17 | 39.68710 | -85.56465 | 3994 ft | 146 kts | 280° |
| 2026-05-08 15:17 | 39.68974 | -85.57735 | 3998 ft | 146 kts | 279° |
| 2026-05-08 15:17 | 39.69242 | -85.59011 | 3996 ft | 147 kts | 280° |
| 2026-05-08 15:18 | 39.69516 | -85.60300 | 3991 ft | 148 kts | 280° |
| 2026-05-08 15:18 | 39.69789 | -85.61585 | 3989 ft | 148 kts | 280° |
| 2026-05-08 15:18 | 39.70063 | -85.62871 | 4000 ft | 148 kts | 279° |
| 2026-05-08 15:18 | 39.70330 | -85.64133 | 3990 ft | 146 kts | 280° |
| 2026-05-08 15:19 | 39.70589 | -85.65394 | 3997 ft | 145 kts | 279° |
| 2026-05-08 15:19 | 39.70853 | -85.66672 | 3998 ft | 148 kts | 279° |
| 2026-05-08 15:19 | 39.71127 | -85.67966 | 3995 ft | 149 kts | 280° |
| 2026-05-08 15:19 | 39.71401 | -85.69255 | 3996 ft | 148 kts | 280° |
| 2026-05-08 15:20 | 39.71669 | -85.70535 | 3999 ft | 146 kts | 280° |
| 2026-05-08 15:20 | 39.71932 | -85.71809 | 3993 ft | 146 kts | 280° |
| 2026-05-08 15:20 | 39.72192 | -85.73083 | 3995 ft | 146 kts | 280° |
| 2026-05-08 15:20 | 39.72456 | -85.74349 | 3994 ft | 145 kts | 279° |
| 2026-05-08 15:21 | 39.72728 | -85.75611 | 3996 ft | 145 kts | 279° |
| 2026-05-08 15:21 | 39.73011 | -85.76866 | 3999 ft | 144 kts | 280° |
| 2026-05-08 15:21 | 39.73294 | -85.78100 | 3992 ft | 145 kts | 280° |
| 2026-05-08 15:21 | 39.73577 | -85.79359 | 3990 ft | 145 kts | 280° |
| 2026-05-08 15:22 | 39.73855 | -85.80612 | 3992 ft | 145 kts | 280° |
| 2026-05-08 15:22 | 39.74132 | -85.81871 | 3993 ft | 145 kts | 280° |
| 2026-05-08 15:22 | 39.74408 | -85.83128 | 3993 ft | 145 kts | 280° |
| 2026-05-08 15:22 | 39.74688 | -85.84390 | 3987 ft | 144 kts | 280° |
| 2026-05-08 15:23 | 39.74953 | -85.85588 | 3991 ft | 143 kts | 280° |
| 2026-05-08 15:23 | 39.75230 | -85.86832 | 3993 ft | 144 kts | 280° |
| 2026-05-08 15:23 | 39.75504 | -85.88074 | 3990 ft | 142 kts | 280° |
| 2026-05-08 15:23 | 39.75777 | -85.89308 | 3987 ft | 141 kts | 280° |
| 2026-05-08 15:24 | 39.76046 | -85.90519 | 3986 ft | 142 kts | 280° |
| 2026-05-08 15:24 | 39.76322 | -85.91767 | 3985 ft | 142 kts | 280° |
| 2026-05-08 15:24 | 39.76590 | -85.92982 | 3985 ft | 142 kts | 279° |
| 2026-05-08 15:24 | 39.76874 | -85.94210 | 3985 ft | 142 kts | 280° |
| 2026-05-08 15:25 | 39.77165 | -85.95433 | 3983 ft | 141 kts | 280° |
| 2026-05-08 15:25 | 39.77454 | -85.96647 | 3984 ft | 141 kts | 280° |
| 2026-05-08 15:25 | 39.77745 | -85.97862 | 3983 ft | 141 kts | 280° |
| 2026-05-08 15:25 | 39.78036 | -85.99082 | 3981 ft | 141 kts | 280° |
| 2026-05-08 15:26 | 39.78326 | -86.00295 | 3978 ft | 140 kts | 280° |
| 2026-05-08 15:26 | 39.78614 | -86.01507 | 3977 ft | 141 kts | 280° |
| 2026-05-08 15:26 | 39.78905 | -86.02727 | 3979 ft | 141 kts | 280° |
| 2026-05-08 15:26 | 39.79195 | -86.03960 | 3982 ft | 144 kts | 280° |
| 2026-05-08 15:27 | 39.79489 | -86.05199 | 3980 ft | 144 kts | 280° |
| 2026-05-08 15:27 | 39.79782 | -86.06439 | 3985 ft | 144 kts | 280° |
| 2026-05-08 15:27 | 39.80072 | -86.07652 | 3856 ft | 139 kts | 280° |
| 2026-05-08 15:27 | 39.80363 | -86.08849 | 3646 ft | 139 kts | 280° |
| 2026-05-08 15:28 | 39.80656 | -86.10038 | 3446 ft | 137 kts | 281° |
| 2026-05-08 15:28 | 39.80936 | -86.11211 | 3245 ft | 135 kts | 280° |
| 2026-05-08 15:28 | 39.81214 | -86.12356 | 3043 ft | 136 kts | 280° |
| 2026-05-08 15:28 | 39.81496 | -86.13509 | 2981 ft | 129 kts | 278° |
| 2026-05-08 15:29 | 39.81345 | -86.14546 | 2985 ft | 117 kts | 238° |
| 2026-05-08 15:29 | 39.80882 | -86.15403 | 2980 ft | 115 kts | 237° |
| 2026-05-08 15:29 | 39.80429 | -86.16249 | 2977 ft | 113 kts | 237° |
| 2026-05-08 15:29 | 39.79985 | -86.17071 | 2973 ft | 110 kts | 236° |
| 2026-05-08 15:30 | 39.79516 | -86.17885 | 2905 ft | 116 kts | 233° |
| 2026-05-08 15:30 | 39.78977 | -86.18692 | 2876 ft | 113 kts | 231° |
| 2026-05-08 15:30 | 39.78469 | -86.19388 | 2847 ft | 102 kts | 229° |
| 2026-05-08 15:30 | 39.77963 | -86.20062 | 2584 ft | 106 kts | 229° |
| 2026-05-08 15:31 | 39.77456 | -86.20753 | 2376 ft | 106 kts | 230° |
| 2026-05-08 15:31 | 39.76983 | -86.21462 | 2295 ft | 101 kts | 230° |
| 2026-05-08 15:31 | 39.76509 | -86.22106 | 2260 ft | 97 kts | 227° |
| 2026-05-08 15:31 | 39.76026 | -86.22742 | 2139 ft | 103 kts | 227° |
| 2026-05-08 15:32 | 39.75500 | -86.23447 | 1942 ft | 112 kts | 225° |
| 2026-05-08 15:32 | 39.74925 | -86.24166 | 1771 ft | 117 kts | 222° |
| 2026-05-08 15:32 | 39.74348 | -86.24912 | 1591 ft | 114 kts | 224° |
| 2026-05-08 15:32 | 39.73854 | -86.25554 | 1476 ft | 90 kts | 224° |
| 2026-05-08 15:33 | 39.73421 | -86.26090 | 1383 ft | 85 kts | 222° |
| 2026-05-08 15:33 | 39.73007 | -86.26618 | 1253 ft | 82 kts | 224° |
| 2026-05-08 15:33 | 39.72607 | -86.27128 | 1117 ft | 73 kts | 224° |
| 2026-05-08 15:33 | 39.72286 | -86.27552 | 944 ft | 59 kts | 224° |
| 2026-05-08 15:34 | 39.72021 | -86.27895 | 839 ft | 51 kts | 221° |
| 2026-05-08 15:34 | 39.71786 | -86.28188 | 791 ft | 44 kts | 221° |
| 2026-05-08 15:34 | 39.71585 | -86.28448 | 784 ft | 38 kts | 225° |
| 2026-05-08 15:34 | 39.71434 | -86.28661 | 786 ft | 27 kts | 219° |
| 2026-05-08 15:35 | 39.71307 | -86.28809 | 789 ft | 23 kts | 224° |
| 2026-05-08 15:35 | 39.71203 | -86.28937 | 789 ft | 19 kts | 216° |
| 2026-05-08 15:35 | 39.71124 | -86.28900 | 791 ft | 8 kts | 133° |
| 2026-05-08 15:35 | 39.71109 | -86.28880 | 791 ft | 0 kts | 131° |
| 2026-05-08 15:36 | 39.71109 | -86.28879 | 791 ft | 1 kts | 130° |
| 2026-05-08 15:36 | 39.71120 | -86.28843 | 792 ft | 8 kts | 46° |
| 2026-05-08 15:36 | 39.71176 | -86.28773 | 791 ft | 12 kts | 46° |
| 2026-05-08 15:36 | 39.71160 | -86.28656 | 790 ft | 16 kts | 130° |
| 2026-05-08 15:37 | 39.71154 | -86.28542 | 790 ft | 18 kts | 53° |
| 2026-05-08 15:37 | 39.71232 | -86.28439 | 789 ft | 12 kts | 47° |
| 2026-05-08 15:37 | 39.71316 | -86.28333 | 787 ft | 21 kts | 45° |
| 2026-05-08 15:37 | 39.71386 | -86.28241 | 786 ft | 12 kts | 45° |
| 2026-05-08 15:38 | 39.71473 | -86.28129 | 784 ft | 23 kts | 43° |
| 2026-05-08 15:38 | 39.71604 | -86.27966 | 787 ft | 24 kts | 40° |
| 2026-05-08 15:38 | 39.71705 | -86.28294 | 783 ft | 0 kts | 226° |